Flight Track Log - Related Links

Times and Time Zones

All times are in EDT time to prevent confusion due to time zone crossing. See the QLK427 flight status page for this flight to view local times or setup timezone preferences in your user account.

Time Position Orientation Groundspeed Altitude Reporting Facility
EDT Latitude Longitude Course Direction KTS MPH feet Rate Location/Type
Sun 04:45:39 AM -27.4824 153.1238 171° South 153 176 3,900  Level Aus ATC (RADAR)
Sun 04:47:09 AM -27.5516 153.1359 171° South 179 206 6,300 1,543 Climbing Aus ATC (RADAR)
Sun 04:47:59 AM -27.5942 153.1434 171° South 188 216 7,500 1,429 Climbing Aus ATC (RADAR)
Sun 04:48:54 AM -27.6438 153.1513 172° South 202 232 8,800 1,533 Climbing Aus ATC (RADAR)
Sun 04:49:29 AM -27.6770 153.1566 172° South 207 238 9,800 1,453 Climbing Aus ATC (RADAR)
Sun 04:50:29 AM -27.7365 153.1677 171° South 219 252 11,100 1,389 Climbing Aus ATC (RADAR)
Sun 04:51:04 AM -27.7718 153.1686 179° South 217 250 12,000 1,380 Climbing Aus ATC (RADAR)
Sun 04:52:09 AM -27.8387 153.1550 190° South 226 260 13,400 1,333 Climbing Aus ATC (RADAR)
Sun 04:52:43 AM -27.8733 153.1492 188° South 217 250 14,200 1,459 Climbing Aus ATC (RADAR)
Sun 04:53:23 AM -27.9112 153.1385 194° South 211 243 15,200 1,280 Climbing Aus ATC (RADAR)
Sun 04:53:58 AM -27.9443 153.1288 195° South 211 243 15,800 1,067 Climbing Aus ATC (RADAR)
Sun 04:54:53 AM -27.9956 153.1134 195° South 208 239 16,800 1,036 Climbing Aus ATC (RADAR)
Sun 04:55:48 AM -28.0492 153.0973 195° South 217 250 17,700 1,143 Climbing Aus ATC (RADAR)
Sun 04:56:38 AM -28.0956 153.0836 195° South 207 238 18,800 1,133 Climbing Aus ATC (RADAR)
Sun 04:57:18 AM -28.1324 153.0725 195° South 205 236 19,400 933 Climbing Aus ATC (RADAR)
Sun 04:58:08 AM -28.1781 153.0591 195° South 204 235 20,200 918 Climbing Aus ATC (RADAR)
Sun 04:58:43 AM -28.2099 153.0497 195° South 202 232 20,700 776 Climbing Aus ATC (RADAR)
Sun 04:59:33 AM -28.2549 153.0360 195° South 199 229 21,300 780 Climbing Aus ATC (RADAR)
Sun 05:00:23 AM -28.3001 153.0227 195° South 200 230 22,000 600 Climbing Aus ATC (RADAR)
Sun 05:01:13 AM -28.3465 153.0083 195° South 207 238 22,300 212 Climbing Aus ATC (RADAR)
Sun 05:01:48 AM -28.3809 152.9975 195° South 219 252 22,300  Level Aus ATC (RADAR)
Sun 05:02:47 AM -28.4460 152.9787 194° South 243 280 22,300  Level Aus ATC (RADAR)
Sun 05:03:37 AM -28.5020 152.9622 195° South 250 288 22,300 -300 Level Aus ATC (RADAR)
Sun 05:04:27 AM -28.5607 152.9440 195° South 263 303 21,800 -494 Descending Aus ATC (RADAR)
Sun 05:05:02 AM -28.6044 152.9317 194° South 273 314 21,600 -282 Descending Aus ATC (RADAR)
Sun 05:05:52 AM -28.6670 152.9131 195° South 279 321 21,400 -286 Descending Aus ATC (RADAR)
Sun 05:06:47 AM -28.7363 152.8925 195° South 282 325 21,100 -327 Descending Aus ATC (RADAR)
Sun 05:07:42 AM -28.8061 152.8713 195° South 283 326 20,800 -313 Descending Aus ATC (RADAR)
Sun 05:08:42 AM -28.8833 152.8483 195° South 286 329 20,500 -286 Descending Aus ATC (RADAR)
Sun 05:09:27 AM -28.9422 152.8324 193° South 291 335 20,300 -225 Descending Aus ATC (RADAR)
Sun 05:10:02 AM -28.9876 152.8186 195° South 289 333 20,200  Descending Aus ATC (RADAR)
Sun 05:10:52 AM -29.0519 152.7995 195° South 285 328 20,300 60 Climbing Aus ATC (RADAR)
Sun 05:11:42 AM -29.1164 152.7804 195° South 287 330 20,300  Level Aus ATC (RADAR)
Sun 05:12:22 AM -29.1675 152.7646 195° South 285 328 20,300  Level Aus ATC (RADAR)
Sun 05:13:02 AM -29.2193 152.7498 194° South 286 329 20,300  Level Aus ATC (RADAR)
Sun 05:13:36 AM -29.2645 152.7360 195° South 289 333 20,300  Level Aus ATC (RADAR)
Sun 05:14:26 AM -29.3288 152.7160 195° South 287 330 20,300  Level Aus ATC (RADAR)
Sun 05:15:16 AM -29.3939 152.6966 195° South 290 334 20,300  Level Aus ATC (RADAR)
Sun 05:16:02 AM -29.4524 152.6784 195° South 291 335 20,300  Level Aus ATC (RADAR)
Sun 05:16:51 AM -29.5173 152.6587 195° South 291 335 20,300  Level Aus ATC (RADAR)
Sun 05:17:56 AM -29.6033 152.6336 194° South 295 339 20,300  Level Aus ATC (RADAR)
Sun 05:18:46 AM -29.6700 152.6135 195° South 296 341 20,300  Level Aus ATC (RADAR)
Sun 05:19:36 AM -29.7364 152.5931 195° South 296 341 20,300  Level Aus ATC (RADAR)
Sun 05:20:26 AM -29.8029 152.5727 195° South 295 339 20,300  Level Aus ATC (RADAR)
Sun 05:21:16 AM -29.8699 152.5528 194° South 299 344 20,300  Level Aus ATC (RADAR)
Sun 05:22:01 AM -29.9301 152.5330 196° South 299 344 20,300  Level Aus ATC (RADAR)
Sun 05:22:56 AM -30.0041 152.5107 195° South 299 344 20,300  Level Aus ATC (RADAR)
Sun 05:23:31 AM -30.0502 152.4946 197° South 298 343 20,300  Level Aus ATC (RADAR)
Sun 05:24:21 AM -30.1177 152.4745 194° South 299 344 20,300  Level Aus ATC (RADAR)
Sun 05:25:05 AM -30.1784 152.4566 194° South 300 345 20,300  Level Aus ATC (RADAR)
Sun 05:25:55 AM -30.2455 152.4359 195° South 299 344 20,300  Level Aus ATC (RADAR)
Sun 05:26:55 AM -30.3256 152.4102 195° South 300 345 20,300  Level Aus ATC (RADAR)
Sun 05:27:50 AM -30.3993 152.3886 194° South 298 343 20,300  Level Aus ATC (RADAR)
Sun 05:28:40 AM -30.4658 152.3678 195° South 298 343 20,300  Level Aus ATC (RADAR)
Sun 05:29:35 AM -30.5393 152.3476 193° South 295 339 20,300  Level Aus ATC (RADAR)
Sun 05:30:20 AM -30.6006 152.3355 190° South 295 339 20,300  Level Aus ATC (RADAR)
Sun 05:31:09 AM -30.6684 152.3199 191° South 297 342 20,300  Level Aus ATC (RADAR)
Sun 05:31:44 AM -30.7159 152.3094 191° South 296 341 20,300  Level Aus ATC (RADAR)
Sun 05:32:29 AM -30.7770 152.2955 191° South 297 342 20,300  Level Aus ATC (RADAR)
Sun 05:33:14 AM -30.8373 152.2813 191° South 296 341 20,300  Level Aus ATC (RADAR)
Sun 05:33:49 AM -30.8852 152.2714 190° South 300 345 20,300  Level Aus ATC (RADAR)
Sun 05:34:39 AM -30.9528 152.2555 191° South 297 342 20,300  Level Aus ATC (RADAR)
Sun 05:35:29 AM -31.0209 152.2403 191° South 297 342 20,300  Level Aus ATC (RADAR)
Sun 05:36:19 AM -31.0889 152.2249 191° South 297 342 20,300  Level Aus ATC (RADAR)
Sun 05:36:54 AM -31.1373 152.2142 191° South 302 348 20,300  Level Aus ATC (RADAR)
Sun 05:37:34 AM -31.1927 152.2015 191° South 304 350 20,300  Level Aus ATC (RADAR)
Sun 05:38:14 AM -31.2480 152.1887 191° South 305 351 20,300  Level Aus ATC (RADAR)
Sun 05:38:54 AM -31.3038 152.1763 191° South 306 352 20,300  Level Aus ATC (RADAR)
Sun 05:39:43 AM -31.3736 152.1608 191° South 305 351 20,300  Level Aus ATC (RADAR)
Sun 05:40:18 AM -31.4223 152.1492 192° South 305 351 20,300  Level Aus ATC (RADAR)
Sun 05:41:58 AM -31.5632 152.1176 191° South 307 353 20,300 -249 Level Aus ATC (RADAR)
Sun 05:44:43 AM -31.7971 152.0634 191° South 305 351 19,200 -439 Descending Aus ATC (RADAR)
Sun 05:45:23 AM -31.8513 152.0511 191° South 294 338 18,800 -533 Descending Aus ATC (RADAR)
Sun 05:46:13 AM -31.9177 152.0360 191° South 290 334 18,400 -635 Descending Aus ATC (RADAR)
Sun 05:47:07 AM -31.9905 152.0215 190° South 285 328 17,700 -894 Descending Aus ATC (RADAR)
Sun 05:47:47 AM -32.0466 152.0286 174° South 293 337 17,000 -1,200 Descending Aus ATC (RADAR)
Sun 05:48:42 AM -32.1241 152.0338 177° South 299 344 15,800 -1,200 Descending Aus ATC (RADAR)
Sun 05:49:17 AM -32.1736 152.0368 177° South 301 346 15,200 -1,137 Descending Aus ATC (RADAR)
Sun 05:50:17 AM -32.2584 152.0427 177° South 302 348 14,000 -1,200 Descending Aus ATC (RADAR)
Sun 05:50:52 AM -32.3077 152.0462 177° South 297 342 13,300 -1,137 Descending Aus ATC (RADAR)
Sun 05:51:52 AM -32.3904 152.0508 177° South 288 331 12,200 -1,137 Descending Aus ATC (RADAR)
Sun 05:52:27 AM -32.4361 152.0538 177° South 279 321 11,500 -1,200 Descending Aus ATC (RADAR)
Sun 05:53:22 AM -32.5050 152.0576 177° South 264 304 10,400 -1,333 Descending Aus ATC (RADAR)
Sun 05:53:57 AM -32.5473 152.0606 177° South 255 293 9,500 -1,271 Descending Aus ATC (RADAR)
Sun 05:54:47 AM -32.6074 152.0651 176° South 253 291 8,600 -1,036 Descending Aus ATC (RADAR)
Sun 05:55:47 AM -32.6781 152.0706 176° South 249 287 7,600 -936 Descending Aus ATC (RADAR)
Sun 05:56:36 AM -32.7332 152.0729 178° South 230 265 6,900 -929 Descending Aus ATC (RADAR)
Sun 05:57:11 AM -32.7685 152.0749 177° South 215 247 6,300 -943 Descending Aus ATC (RADAR)
Sun 05:57:46 AM -32.8032 152.0774 177° South 211 243 5,800 -800 Descending Aus ATC (RADAR)
Sun 05:58:26 AM -32.8416 152.0801 177° South 204 235 5,300 -800 Descending Aus ATC (RADAR)
Sun 05:59:01 AM -32.8727 152.0757 187° South 197 227 4,800 -988 Descending Aus ATC (RADAR)
Sun 05:59:51 AM -32.8969 152.0278 239° Southwest 204 235 3,900 -1,091 Descending Aus ATC (RADAR)
Sun 06:00:51 AM -32.8943 151.9718 273° West 187 215 2,800 -1,029 Descending Aus ATC (RADAR)
Sun 06:01:36 AM -32.8724 151.9428 312° West 157 181 2,100 -675 Descending Aus ATC (RADAR)
Sun 06:02:11 AM -32.8593 151.9240 310° West 126 145 1,900 -560 Descending Aus ATC (RADAR)
Sun 06:02:51 AM -32.8445 151.9033 310° West 121 139 1,400 -750 Descending Aus ATC (RADAR)
Sun 06:03:31 AM -32.8310 151.8845 310° West 110 127 900 -640 Descending Aus ATC (RADAR)
Sun 06:04:06 AM -32.8196 151.8684 310° West 107 123 600 -514 Descending Aus ATC (RADAR)

Login

Don't have an account? Register now (free) for customized features, flight alerts, and more!